Terminal Aerodrome Forecast
Issued by NWS

Home | Current Version | Previous Version | Text Only | Print | Product List | Glossary On
Versions: 1 2 3 4 5 6 7 8 9 10 11 12 13 14 15 16 17 18 19 20 21 22 23 24 25 26 27 28 29
000
FTUS45 KREV 310527
TAFCXP
TAF
KCXP 310527Z 3106/0106 VRB03KT P6SM SCT120 BKN200
     FM312000 07010G18KT P6SM SCT100 BKN200
     FM010200 09008KT P6SM FEW100 BKN200=

USA.gov is the U.S. government's official web portal to all federal, state and local government web resources and services.